EDW150 LSZH-LPFR
Flight info
| Callsign | EDW150 |
|---|---|
| Flight time | 2h 38m |
| Altitude | 33000 |
| Route | VEBIT T50 ROTOS Z669 ULMES DCT VADAR DCT NINTU DCT MEBAK/N0452F350 DCT REPSI DCT LERGA DCT MINSO DCT NARAK DCT AGN DCT PIPOR DCT PPN DCT MIRPO DCT DGO/N0449F370 DCT NEA DCT ZANKO DCT RIDAV DCT ADINO DCT ELVAR DCT ALAGU DCT ELDUK DCT ODEMI |
| Aircraft | A320/M-SDE3FGHIRWY/LB1 |
Departure
| Time | 2026-05-06 10:36 |
|---|---|
| Airport | Zürich Airport (LSZH) |
Arrival
| Time | 2026-05-06 13:14 |
|---|---|
| Airport | Faro - Gago Coutinho International Airport (LPFR) |
| Time | Latitude | Longitude | Altitude | Speed | Heading |
|---|---|---|---|---|---|
| 2026-05-06 09:43 | 47.45177 | 8.55711 | 1407 ft | 0 kts | 186° |
| 2026-05-06 10:24 | 47.45196 | 8.55714 | 1410 ft | 4 kts | 186° |
| 2026-05-06 10:24 | 47.45223 | 8.55719 | 1406 ft | 4 kts | 186° |
| 2026-05-06 10:24 | 47.45250 | 8.55723 | 1406 ft | 4 kts | 186° |
| 2026-05-06 10:24 | 47.45266 | 8.55726 | 1409 ft | 0 kts | 186° |
| 2026-05-06 10:28 | 47.45266 | 8.55725 | 1409 ft | 0 kts | 186° |
| 2026-05-06 10:28 | 47.45263 | 8.55719 | 1413 ft | 1 kts | 233° |
| 2026-05-06 10:28 | 47.45267 | 8.55700 | 1409 ft | 5 kts | 279° |
| 2026-05-06 10:28 | 47.45272 | 8.55638 | 1406 ft | 7 kts | 277° |
| 2026-05-06 10:29 | 47.45298 | 8.55563 | 1410 ft | 10 kts | 325° |
| 2026-05-06 10:29 | 47.45363 | 8.55518 | 1406 ft | 11 kts | 335° |
| 2026-05-06 10:29 | 47.45439 | 8.55466 | 1404 ft | 14 kts | 335° |
| 2026-05-06 10:29 | 47.45508 | 8.55449 | 1403 ft | 10 kts | 24° |
| 2026-05-06 10:30 | 47.45525 | 8.55511 | 1405 ft | 4 kts | 91° |
| 2026-05-06 10:30 | 47.45523 | 8.55549 | 1407 ft | 4 kts | 96° |
| 2026-05-06 10:30 | 47.45518 | 8.55610 | 1407 ft | 8 kts | 96° |
| 2026-05-06 10:30 | 47.45510 | 8.55710 | 1407 ft | 9 kts | 96° |
| 2026-05-06 10:31 | 47.45504 | 8.55798 | 1409 ft | 9 kts | 95° |
| 2026-05-06 10:31 | 47.45498 | 8.55899 | 1407 ft | 11 kts | 96° |
| 2026-05-06 10:31 | 47.45488 | 8.56018 | 1411 ft | 12 kts | 96° |
| 2026-05-06 10:31 | 47.45478 | 8.56155 | 1407 ft | 14 kts | 96° |
| 2026-05-06 10:32 | 47.45504 | 8.56262 | 1413 ft | 9 kts | 51° |
| 2026-05-06 10:32 | 47.45551 | 8.56347 | 1413 ft | 11 kts | 51° |
| 2026-05-06 10:32 | 47.45593 | 8.56438 | 1414 ft | 11 kts | 73° |
| 2026-05-06 10:32 | 47.45589 | 8.56563 | 1420 ft | 13 kts | 97° |
| 2026-05-06 10:33 | 47.45578 | 8.56701 | 1418 ft | 13 kts | 96° |
| 2026-05-06 10:33 | 47.45569 | 8.56820 | 1420 ft | 12 kts | 96° |
| 2026-05-06 10:33 | 47.45562 | 8.56941 | 1420 ft | 11 kts | 91° |
| 2026-05-06 10:33 | 47.45598 | 8.57016 | 1424 ft | 7 kts | 25° |
| 2026-05-06 10:34 | 47.45640 | 8.57024 | 1425 ft | 5 kts | 4° |
| 2026-05-06 10:34 | 47.45663 | 8.56996 | 1424 ft | 5 kts | 296° |
| 2026-05-06 10:34 | 47.45666 | 8.56965 | 1424 ft | 0 kts | 276° |
| 2026-05-06 10:35 | 47.45668 | 8.56936 | 1424 ft | 13 kts | 276° |
| 2026-05-06 10:35 | 47.45706 | 8.56414 | 1418 ft | 87 kts | 276° |
| 2026-05-06 10:35 | 47.45792 | 8.55221 | 1406 ft | 144 kts | 276° |
| 2026-05-06 10:35 | 47.45911 | 8.53692 | 1839 ft | 151 kts | 277° |
| 2026-05-06 10:36 | 47.46028 | 8.52144 | 2513 ft | 152 kts | 277° |
| 2026-05-06 10:36 | 47.46139 | 8.50596 | 3188 ft | 151 kts | 277° |
| 2026-05-06 10:36 | 47.46243 | 8.49050 | 3765 ft | 151 kts | 274° |
| 2026-05-06 10:36 | 47.46002 | 8.47565 | 4290 ft | 153 kts | 233° |
| 2026-05-06 10:37 | 47.45124 | 8.46591 | 4667 ft | 169 kts | 212° |
| 2026-05-06 10:37 | 47.44186 | 8.45394 | 4862 ft | 190 kts | 231° |
| 2026-05-06 10:37 | 47.43341 | 8.43747 | 5076 ft | 213 kts | 235° |
| 2026-05-06 10:37 | 47.42441 | 8.41847 | 5324 ft | 238 kts | 236° |
| 2026-05-06 10:38 | 47.41448 | 8.39747 | 5771 ft | 258 kts | 235° |
| 2026-05-06 10:38 | 47.40387 | 8.37545 | 6514 ft | 266 kts | 234° |
| 2026-05-06 10:38 | 47.39288 | 8.35313 | 7337 ft | 271 kts | 233° |
| 2026-05-06 10:38 | 47.38314 | 8.32903 | 8201 ft | 276 kts | 243° |
| 2026-05-06 10:39 | 47.37466 | 8.30348 | 9160 ft | 277 kts | 242° |
| 2026-05-06 10:39 | 47.36586 | 8.27819 | 10028 ft | 279 kts | 242° |
| 2026-05-06 10:39 | 47.35655 | 8.25203 | 10422 ft | 299 kts | 241° |
| 2026-05-06 10:39 | 47.34641 | 8.22387 | 10604 ft | 322 kts | 241° |
| 2026-05-06 10:40 | 47.33558 | 8.19387 | 10916 ft | 338 kts | 241° |
| 2026-05-06 10:40 | 47.32449 | 8.16300 | 11529 ft | 343 kts | 242° |
| 2026-05-06 10:40 | 47.31330 | 8.13169 | 12186 ft | 347 kts | 242° |
| 2026-05-06 10:40 | 47.30201 | 8.10002 | 12878 ft | 350 kts | 242° |
| 2026-05-06 10:41 | 47.29083 | 8.06862 | 13605 ft | 352 kts | 242° |
| 2026-05-06 10:41 | 47.27942 | 8.03652 | 14221 ft | 355 kts | 242° |
| 2026-05-06 10:41 | 47.26810 | 8.00408 | 14860 ft | 359 kts | 245° |
| 2026-05-06 10:41 | 47.25855 | 7.96992 | 15517 ft | 363 kts | 247° |
| 2026-05-06 10:42 | 47.24896 | 7.93532 | 16107 ft | 367 kts | 246° |
| 2026-05-06 10:42 | 47.23921 | 7.90044 | 16685 ft | 370 kts | 246° |
| 2026-05-06 10:42 | 47.22932 | 7.86522 | 17238 ft | 374 kts | 246° |
| 2026-05-06 10:42 | 47.21927 | 7.82961 | 17800 ft | 378 kts | 246° |
| 2026-05-06 10:43 | 47.20914 | 7.79373 | 18303 ft | 382 kts | 245° |
| 2026-05-06 10:43 | 47.19891 | 7.75753 | 18818 ft | 385 kts | 245° |
| 2026-05-06 10:43 | 47.18713 | 7.72227 | 19342 ft | 385 kts | 236° |
| 2026-05-06 10:44 | 47.15487 | 7.65982 | 20371 ft | 388 kts | 230° |
| 2026-05-06 10:44 | 47.13798 | 7.62870 | 20895 ft | 390 kts | 229° |
| 2026-05-06 10:44 | 47.12102 | 7.59747 | 21338 ft | 393 kts | 229° |
| 2026-05-06 10:44 | 47.10388 | 7.56596 | 21782 ft | 396 kts | 229° |
| 2026-05-06 10:45 | 47.08663 | 7.53424 | 22260 ft | 399 kts | 229° |
| 2026-05-06 10:45 | 47.06935 | 7.50239 | 22727 ft | 401 kts | 229° |
| 2026-05-06 10:45 | 47.05192 | 7.47024 | 23199 ft | 403 kts | 229° |
| 2026-05-06 10:45 | 47.03445 | 7.43799 | 23604 ft | 405 kts | 229° |
| 2026-05-06 10:46 | 47.01691 | 7.40565 | 23999 ft | 405 kts | 229° |
| 2026-05-06 10:46 | 46.99925 | 7.37322 | 24352 ft | 408 kts | 228° |
| 2026-05-06 10:46 | 46.98141 | 7.34061 | 24647 ft | 411 kts | 228° |
| 2026-05-06 10:46 | 46.96343 | 7.30789 | 25023 ft | 413 kts | 227° |
| 2026-05-06 10:47 | 46.94562 | 7.27555 | 25423 ft | 414 kts | 227° |
| 2026-05-06 10:47 | 46.92759 | 7.24275 | 25852 ft | 414 kts | 227° |
| 2026-05-06 10:47 | 46.90958 | 7.20993 | 26244 ft | 414 kts | 227° |
| 2026-05-06 10:47 | 46.89158 | 7.17710 | 26632 ft | 414 kts | 227° |
| 2026-05-06 10:48 | 46.87353 | 7.14423 | 26994 ft | 414 kts | 227° |
| 2026-05-06 10:48 | 46.85548 | 7.11146 | 27337 ft | 414 kts | 227° |
| 2026-05-06 10:48 | 46.83740 | 7.07863 | 27667 ft | 415 kts | 227° |
| 2026-05-06 10:48 | 46.81931 | 7.04582 | 27989 ft | 415 kts | 227° |
| 2026-05-06 10:49 | 46.80118 | 7.01302 | 28322 ft | 415 kts | 227° |
| 2026-05-06 10:49 | 46.78323 | 6.98057 | 28630 ft | 416 kts | 227° |
| 2026-05-06 10:49 | 46.76485 | 6.94738 | 28936 ft | 416 kts | 227° |
| 2026-05-06 10:49 | 46.74669 | 6.91462 | 29302 ft | 414 kts | 228° |
| 2026-05-06 10:50 | 46.72847 | 6.88182 | 29463 ft | 418 kts | 228° |
| 2026-05-06 10:50 | 46.71027 | 6.84905 | 29605 ft | 421 kts | 228° |
| 2026-05-06 10:50 | 46.69184 | 6.81591 | 29781 ft | 423 kts | 228° |
| 2026-05-06 10:50 | 46.67327 | 6.78254 | 30040 ft | 423 kts | 228° |
| 2026-05-06 10:51 | 46.65530 | 6.74867 | 30291 ft | 424 kts | 233° |
| 2026-05-06 10:51 | 46.63987 | 6.71212 | 30545 ft | 424 kts | 235° |
| 2026-05-06 10:51 | 46.62463 | 6.67537 | 30790 ft | 423 kts | 235° |
| 2026-05-06 10:51 | 46.60944 | 6.63882 | 31047 ft | 422 kts | 235° |
| 2026-05-06 10:52 | 46.59425 | 6.60242 | 31303 ft | 420 kts | 235° |
| 2026-05-06 10:52 | 46.57907 | 6.56614 | 31561 ft | 419 kts | 235° |
| 2026-05-06 10:52 | 46.56396 | 6.53004 | 31833 ft | 418 kts | 235° |
| 2026-05-06 10:52 | 46.54883 | 6.49390 | 32113 ft | 417 kts | 235° |
| 2026-05-06 10:53 | 46.53380 | 6.45804 | 32418 ft | 416 kts | 235° |
| 2026-05-06 10:53 | 46.51863 | 6.42198 | 32566 ft | 419 kts | 235° |
| 2026-05-06 10:53 | 46.50340 | 6.38584 | 32699 ft | 422 kts | 235° |
| 2026-05-06 10:53 | 46.48821 | 6.34984 | 32845 ft | 423 kts | 235° |
| 2026-05-06 10:54 | 46.47280 | 6.31342 | 33065 ft | 423 kts | 235° |
| 2026-05-06 10:54 | 46.45742 | 6.27705 | 33365 ft | 422 kts | 235° |
| 2026-05-06 10:54 | 46.44208 | 6.24081 | 33681 ft | 421 kts | 235° |
| 2026-05-06 10:54 | 46.42681 | 6.20473 | 33983 ft | 419 kts | 235° |
| 2026-05-06 10:55 | 46.41157 | 6.16879 | 34217 ft | 418 kts | 235° |
| 2026-05-06 10:55 | 46.39633 | 6.13291 | 34422 ft | 418 kts | 236° |
| 2026-05-06 10:55 | 46.38106 | 6.09700 | 34606 ft | 419 kts | 235° |
| 2026-05-06 10:55 | 46.36572 | 6.06100 | 34812 ft | 419 kts | 236° |
| 2026-05-06 10:56 | 46.35042 | 6.02517 | 35010 ft | 419 kts | 236° |
| 2026-05-06 10:56 | 46.33505 | 5.98924 | 35196 ft | 421 kts | 236° |
| 2026-05-06 10:56 | 46.31960 | 5.95315 | 35306 ft | 423 kts | 236° |
| 2026-05-06 10:56 | 46.30409 | 5.91697 | 35435 ft | 424 kts | 236° |
| 2026-05-06 10:57 | 46.28854 | 5.88074 | 35565 ft | 424 kts | 236° |
| 2026-05-06 10:57 | 46.27297 | 5.84446 | 35701 ft | 425 kts | 236° |
| 2026-05-06 10:57 | 46.25762 | 5.80866 | 35854 ft | 425 kts | 236° |
| 2026-05-06 10:57 | 46.24202 | 5.77229 | 36015 ft | 425 kts | 236° |
| 2026-05-06 10:58 | 46.22646 | 5.73602 | 36183 ft | 425 kts | 236° |
| 2026-05-06 10:58 | 46.21087 | 5.69979 | 36322 ft | 424 kts | 236° |
| 2026-05-06 10:58 | 46.19527 | 5.66361 | 36457 ft | 424 kts | 236° |
| 2026-05-06 10:58 | 46.17964 | 5.62747 | 36595 ft | 424 kts | 236° |
| 2026-05-06 10:59 | 46.16394 | 5.59141 | 36725 ft | 424 kts | 236° |
| 2026-05-06 10:59 | 46.14826 | 5.55539 | 36892 ft | 424 kts | 236° |
| 2026-05-06 10:59 | 46.13221 | 5.51965 | 36947 ft | 426 kts | 234° |
| 2026-05-06 11:00 | 46.09851 | 5.44928 | 36942 ft | 427 kts | 233° |
| 2026-05-06 11:00 | 46.06417 | 5.37946 | 36940 ft | 427 kts | 233° |
| 2026-05-06 11:01 | 46.03011 | 5.30940 | 36942 ft | 427 kts | 234° |
| 2026-05-06 11:01 | 45.99633 | 5.23920 | 36940 ft | 426 kts | 234° |
| 2026-05-06 11:02 | 45.96271 | 5.16960 | 36941 ft | 427 kts | 234° |
| 2026-05-06 11:02 | 45.92874 | 5.09945 | 36960 ft | 428 kts | 234° |
| 2026-05-06 11:03 | 45.89464 | 5.02935 | 36957 ft | 428 kts | 234° |
| 2026-05-06 11:03 | 45.86041 | 4.95922 | 36944 ft | 429 kts | 234° |
| 2026-05-06 11:04 | 45.82607 | 4.88906 | 36956 ft | 429 kts | 234° |
| 2026-05-06 11:04 | 45.79199 | 4.81940 | 36963 ft | 429 kts | 234° |
| 2026-05-06 11:05 | 45.75777 | 4.74954 | 36962 ft | 428 kts | 234° |
| 2026-05-06 11:05 | 45.72819 | 4.68960 | 36971 ft | 429 kts | 234° |
| 2026-05-06 11:06 | 45.70674 | 4.64631 | 36954 ft | 429 kts | 234° |
| 2026-05-06 11:06 | 45.67227 | 4.57661 | 36957 ft | 429 kts | 234° |
| 2026-05-06 11:07 | 45.63785 | 4.50689 | 36957 ft | 429 kts | 234° |
| 2026-05-06 11:07 | 45.60332 | 4.43747 | 36959 ft | 428 kts | 234° |
| 2026-05-06 11:08 | 45.56884 | 4.36827 | 36964 ft | 428 kts | 234° |
| 2026-05-06 11:08 | 45.53433 | 4.29918 | 36951 ft | 427 kts | 234° |
| 2026-05-06 11:09 | 45.50001 | 4.23047 | 36954 ft | 428 kts | 234° |
| 2026-05-06 11:09 | 45.46545 | 4.16137 | 36943 ft | 428 kts | 234° |
| 2026-05-06 11:10 | 45.43077 | 4.09239 | 36952 ft | 428 kts | 234° |
| 2026-05-06 11:10 | 45.39594 | 4.02355 | 36951 ft | 428 kts | 233° |
| 2026-05-06 11:11 | 45.36110 | 3.95469 | 36934 ft | 428 kts | 234° |
| 2026-05-06 11:11 | 45.32633 | 3.88594 | 36926 ft | 428 kts | 233° |
| 2026-05-06 11:12 | 45.29166 | 3.81779 | 36922 ft | 429 kts | 234° |
| 2026-05-06 11:12 | 45.25672 | 3.74919 | 36931 ft | 429 kts | 234° |
| 2026-05-06 11:13 | 45.22225 | 3.68014 | 36935 ft | 429 kts | 235° |
| 2026-05-06 11:13 | 45.18834 | 3.61056 | 36938 ft | 429 kts | 235° |
| 2026-05-06 11:14 | 45.15428 | 3.54101 | 36938 ft | 429 kts | 234° |
| 2026-05-06 11:14 | 45.12582 | 3.48343 | 36927 ft | 429 kts | 234° |
| 2026-05-06 11:15 | 45.09155 | 3.41438 | 36940 ft | 428 kts | 234° |
| 2026-05-06 11:15 | 45.05721 | 3.34556 | 36939 ft | 428 kts | 234° |
| 2026-05-06 11:16 | 45.02291 | 3.27676 | 36945 ft | 428 kts | 234° |
| 2026-05-06 11:16 | 44.98860 | 3.20807 | 36948 ft | 428 kts | 234° |
| 2026-05-06 11:17 | 44.95447 | 3.13999 | 36950 ft | 427 kts | 234° |
| 2026-05-06 11:17 | 44.91997 | 3.07113 | 36949 ft | 427 kts | 234° |
| 2026-05-06 11:18 | 44.88561 | 3.00287 | 36957 ft | 427 kts | 234° |
| 2026-05-06 11:18 | 44.85128 | 2.93507 | 36952 ft | 428 kts | 234° |
| 2026-05-06 11:19 | 44.81784 | 2.86553 | 36958 ft | 428 kts | 237° |
| 2026-05-06 11:19 | 44.78594 | 2.79460 | 36962 ft | 429 kts | 237° |
| 2026-05-06 11:20 | 44.75387 | 2.72380 | 36962 ft | 429 kts | 237° |
| 2026-05-06 11:20 | 44.72134 | 2.65353 | 36975 ft | 429 kts | 237° |
| 2026-05-06 11:21 | 44.68860 | 2.58317 | 36970 ft | 430 kts | 237° |
| 2026-05-06 11:21 | 44.65580 | 2.51273 | 36971 ft | 431 kts | 237° |
| 2026-05-06 11:22 | 44.62312 | 2.44266 | 36980 ft | 431 kts | 237° |
| 2026-05-06 11:22 | 44.59021 | 2.37220 | 36964 ft | 432 kts | 237° |
| 2026-05-06 11:23 | 44.55725 | 2.30186 | 36979 ft | 431 kts | 237° |
| 2026-05-06 11:23 | 44.52428 | 2.23165 | 36988 ft | 431 kts | 237° |
| 2026-05-06 11:24 | 44.49117 | 2.16157 | 36986 ft | 431 kts | 237° |
| 2026-05-06 11:24 | 44.45806 | 2.09150 | 36983 ft | 431 kts | 237° |
| 2026-05-06 11:25 | 44.42492 | 2.02146 | 36977 ft | 431 kts | 237° |
| 2026-05-06 11:25 | 44.39178 | 1.95139 | 36962 ft | 431 kts | 237° |
| 2026-05-06 11:26 | 44.35859 | 1.88157 | 36986 ft | 431 kts | 237° |
| 2026-05-06 11:26 | 44.32544 | 1.81188 | 36983 ft | 431 kts | 237° |
| 2026-05-06 11:27 | 44.29243 | 1.74276 | 36982 ft | 431 kts | 237° |
| 2026-05-06 11:27 | 44.25977 | 1.67271 | 36981 ft | 431 kts | 238° |
| 2026-05-06 11:28 | 44.22769 | 1.60219 | 36983 ft | 430 kts | 238° |
| 2026-05-06 11:28 | 44.19558 | 1.53176 | 36980 ft | 430 kts | 238° |
| 2026-05-06 11:29 | 44.16321 | 1.46162 | 36986 ft | 430 kts | 238° |
| 2026-05-06 11:29 | 44.13062 | 1.39142 | 36983 ft | 431 kts | 238° |
| 2026-05-06 11:30 | 44.09821 | 1.32172 | 36979 ft | 431 kts | 238° |
| 2026-05-06 11:30 | 44.06568 | 1.25173 | 36980 ft | 431 kts | 238° |
| 2026-05-06 11:31 | 44.03313 | 1.18178 | 36978 ft | 431 kts | 238° |
| 2026-05-06 11:31 | 44.00049 | 1.11199 | 36978 ft | 431 kts | 238° |
| 2026-05-06 11:32 | 43.96779 | 1.04233 | 36984 ft | 430 kts | 237° |
| 2026-05-06 11:32 | 43.93506 | 0.97277 | 36983 ft | 430 kts | 237° |
| 2026-05-06 11:33 | 43.90232 | 0.90330 | 36979 ft | 430 kts | 237° |
| 2026-05-06 11:33 | 43.87018 | 0.83391 | 36980 ft | 430 kts | 239° |
| 2026-05-06 11:34 | 43.83976 | 0.76261 | 36987 ft | 430 kts | 240° |
| 2026-05-06 11:34 | 43.80970 | 0.69102 | 36983 ft | 430 kts | 240° |
| 2026-05-06 11:35 | 43.77935 | 0.62006 | 36983 ft | 430 kts | 240° |
| 2026-05-06 11:35 | 43.74854 | 0.54902 | 36992 ft | 429 kts | 239° |
| 2026-05-06 11:36 | 43.71777 | 0.47833 | 36992 ft | 429 kts | 239° |
| 2026-05-06 11:36 | 43.68709 | 0.40784 | 36996 ft | 429 kts | 239° |
| 2026-05-06 11:37 | 43.65621 | 0.33699 | 36996 ft | 430 kts | 240° |
| 2026-05-06 11:37 | 43.62524 | 0.26627 | 36981 ft | 430 kts | 239° |
| 2026-05-06 11:38 | 43.59440 | 0.19605 | 36989 ft | 429 kts | 239° |
| 2026-05-06 11:38 | 43.56340 | 0.12556 | 37001 ft | 429 kts | 239° |
| 2026-05-06 11:39 | 43.53263 | 0.05561 | 37005 ft | 429 kts | 239° |
| 2026-05-06 11:39 | 43.50159 | -0.01466 | 37017 ft | 429 kts | 240° |
| 2026-05-06 11:40 | 43.47059 | -0.08478 | 37008 ft | 429 kts | 240° |
| 2026-05-06 11:40 | 43.43946 | -0.15516 | 37009 ft | 430 kts | 239° |
| 2026-05-06 11:41 | 43.40843 | -0.22493 | 37007 ft | 429 kts | 239° |
| 2026-05-06 11:41 | 43.37726 | -0.29486 | 37016 ft | 429 kts | 239° |
| 2026-05-06 11:42 | 43.34612 | -0.36445 | 37018 ft | 428 kts | 239° |
| 2026-05-06 11:42 | 43.31477 | -0.43432 | 37018 ft | 427 kts | 239° |
| 2026-05-06 11:43 | 43.28378 | -0.50346 | 37019 ft | 428 kts | 239° |
| 2026-05-06 11:43 | 43.25244 | -0.57304 | 37014 ft | 428 kts | 239° |
| 2026-05-06 11:44 | 43.20569 | -0.67677 | 37009 ft | 427 kts | 239° |
| 2026-05-06 11:44 | 43.17441 | -0.74602 | 37018 ft | 426 kts | 239° |
| 2026-05-06 11:45 | 43.14316 | -0.81480 | 37026 ft | 426 kts | 239° |
| 2026-05-06 11:45 | 43.11156 | -0.88414 | 37026 ft | 427 kts | 239° |
| 2026-05-06 11:46 | 43.08026 | -0.95273 | 37026 ft | 426 kts | 239° |
| 2026-05-06 11:46 | 43.04891 | -1.02128 | 37015 ft | 426 kts | 239° |
| 2026-05-06 11:47 | 43.01741 | -1.09004 | 37023 ft | 427 kts | 239° |
| 2026-05-06 11:47 | 42.98603 | -1.15852 | 37041 ft | 426 kts | 239° |
| 2026-05-06 11:48 | 42.95449 | -1.22698 | 37047 ft | 425 kts | 239° |
| 2026-05-06 11:48 | 42.92302 | -1.29517 | 37036 ft | 425 kts | 239° |
| 2026-05-06 11:49 | 42.89146 | -1.36331 | 37041 ft | 424 kts | 239° |
| 2026-05-06 11:49 | 42.86005 | -1.43120 | 37037 ft | 424 kts | 239° |
| 2026-05-06 11:50 | 42.82850 | -1.49909 | 37035 ft | 424 kts | 239° |
| 2026-05-06 11:50 | 42.79697 | -1.56682 | 37030 ft | 425 kts | 239° |
| 2026-05-06 11:51 | 42.76522 | -1.63481 | 37028 ft | 425 kts | 239° |
| 2026-05-06 11:51 | 42.73493 | -1.70359 | 37021 ft | 424 kts | 248° |
| 2026-05-06 11:52 | 42.71653 | -1.77971 | 37023 ft | 423 kts | 254° |
| 2026-05-06 11:52 | 42.69923 | -1.85651 | 37028 ft | 424 kts | 253° |
| 2026-05-06 11:53 | 42.68178 | -1.93289 | 37031 ft | 424 kts | 253° |
| 2026-05-06 11:53 | 42.66432 | -2.00952 | 37042 ft | 425 kts | 254° |
| 2026-05-06 11:54 | 42.64688 | -2.08615 | 37045 ft | 424 kts | 254° |
| 2026-05-06 11:54 | 42.62956 | -2.16219 | 37035 ft | 424 kts | 253° |
| 2026-05-06 11:55 | 42.61147 | -2.23845 | 37045 ft | 424 kts | 253° |
| 2026-05-06 11:55 | 42.59280 | -2.31441 | 37045 ft | 424 kts | 252° |
| 2026-05-06 11:56 | 42.57409 | -2.39036 | 37039 ft | 424 kts | 253° |
| 2026-05-06 11:56 | 42.55556 | -2.46629 | 37044 ft | 424 kts | 253° |
| 2026-05-06 11:57 | 42.53705 | -2.54211 | 37044 ft | 423 kts | 253° |
| 2026-05-06 11:57 | 42.51852 | -2.61751 | 37044 ft | 423 kts | 252° |
| 2026-05-06 11:58 | 42.49984 | -2.69319 | 37040 ft | 423 kts | 253° |
| 2026-05-06 11:58 | 42.48110 | -2.76878 | 37039 ft | 423 kts | 252° |
| 2026-05-06 11:59 | 42.46230 | -2.84433 | 37038 ft | 423 kts | 252° |
| 2026-05-06 11:59 | 42.44049 | -2.91839 | 37037 ft | 424 kts | 247° |
| 2026-05-06 12:00 | 42.41578 | -2.99093 | 37037 ft | 424 kts | 247° |
| 2026-05-06 12:00 | 42.39102 | -3.06344 | 37024 ft | 424 kts | 247° |
| 2026-05-06 12:01 | 42.36637 | -3.13598 | 37027 ft | 424 kts | 247° |
| 2026-05-06 12:01 | 42.34166 | -3.20835 | 37020 ft | 424 kts | 247° |
| 2026-05-06 12:02 | 42.31682 | -3.28043 | 37029 ft | 423 kts | 247° |
| 2026-05-06 12:02 | 42.29208 | -3.35221 | 37033 ft | 423 kts | 247° |
| 2026-05-06 12:03 | 42.26721 | -3.42422 | 37040 ft | 423 kts | 247° |
| 2026-05-06 12:03 | 42.24235 | -3.49631 | 37038 ft | 423 kts | 247° |
| 2026-05-06 12:04 | 42.21739 | -3.56834 | 37038 ft | 423 kts | 246° |
| 2026-05-06 12:04 | 42.19235 | -3.64016 | 37037 ft | 424 kts | 246° |
| 2026-05-06 12:05 | 42.16727 | -3.71207 | 37028 ft | 424 kts | 246° |
| 2026-05-06 12:05 | 42.14232 | -3.78349 | 37026 ft | 424 kts | 246° |
| 2026-05-06 12:06 | 42.11702 | -3.85555 | 37018 ft | 424 kts | 246° |
| 2026-05-06 12:06 | 42.09181 | -3.92728 | 37025 ft | 424 kts | 246° |
| 2026-05-06 12:07 | 42.06661 | -3.99872 | 37027 ft | 424 kts | 246° |
| 2026-05-06 12:07 | 42.04122 | -4.07039 | 37028 ft | 424 kts | 245° |
| 2026-05-06 12:08 | 42.00602 | -4.13425 | 37029 ft | 429 kts | 225° |
| 2026-05-06 12:08 | 41.96866 | -4.17829 | 37028 ft | 430 kts | 224° |
| 2026-05-06 12:09 | 41.92351 | -4.23114 | 37026 ft | 430 kts | 224° |
| 2026-05-06 12:09 | 41.87828 | -4.28409 | 37022 ft | 430 kts | 224° |
| 2026-05-06 12:10 | 41.83344 | -4.33656 | 37025 ft | 430 kts | 224° |
| 2026-05-06 12:10 | 41.78830 | -4.38915 | 37026 ft | 430 kts | 224° |
| 2026-05-06 12:11 | 41.74307 | -4.44161 | 37026 ft | 429 kts | 224° |
| 2026-05-06 12:11 | 41.69772 | -4.49407 | 37026 ft | 429 kts | 224° |
| 2026-05-06 12:12 | 41.65294 | -4.54599 | 37016 ft | 429 kts | 224° |
| 2026-05-06 12:12 | 41.60754 | -4.59844 | 37016 ft | 429 kts | 224° |
| 2026-05-06 12:13 | 41.56260 | -4.65023 | 37022 ft | 429 kts | 224° |
| 2026-05-06 12:13 | 41.51718 | -4.70250 | 37032 ft | 429 kts | 224° |
| 2026-05-06 12:14 | 41.47218 | -4.75421 | 37020 ft | 429 kts | 224° |
| 2026-05-06 12:14 | 41.42692 | -4.80621 | 37016 ft | 429 kts | 223° |
| 2026-05-06 12:15 | 41.38162 | -4.85811 | 37022 ft | 429 kts | 223° |
| 2026-05-06 12:15 | 41.33627 | -4.90993 | 37025 ft | 430 kts | 223° |
| 2026-05-06 12:16 | 41.29086 | -4.96160 | 37027 ft | 429 kts | 223° |
| 2026-05-06 12:16 | 41.24547 | -5.01314 | 37023 ft | 430 kts | 223° |
| 2026-05-06 12:17 | 41.20000 | -5.06475 | 37007 ft | 429 kts | 223° |
| 2026-05-06 12:17 | 41.15460 | -5.11620 | 37014 ft | 429 kts | 223° |
| 2026-05-06 12:18 | 41.10918 | -5.16752 | 37016 ft | 429 kts | 223° |
| 2026-05-06 12:18 | 41.06392 | -5.21847 | 37015 ft | 429 kts | 223° |
| 2026-05-06 12:19 | 41.01855 | -5.26968 | 37015 ft | 428 kts | 223° |
| 2026-05-06 12:19 | 40.97321 | -5.32076 | 37009 ft | 428 kts | 223° |
| 2026-05-06 12:20 | 40.92784 | -5.37167 | 37014 ft | 428 kts | 223° |
| 2026-05-06 12:20 | 40.88239 | -5.42260 | 37014 ft | 428 kts | 223° |
| 2026-05-06 12:21 | 40.83725 | -5.47313 | 37015 ft | 428 kts | 223° |
| 2026-05-06 12:21 | 40.79175 | -5.52396 | 37015 ft | 429 kts | 223° |
| 2026-05-06 12:22 | 40.74619 | -5.57463 | 36994 ft | 428 kts | 223° |
| 2026-05-06 12:22 | 40.70068 | -5.62513 | 36999 ft | 427 kts | 223° |
| 2026-05-06 12:23 | 40.65521 | -5.67559 | 36995 ft | 426 kts | 223° |
| 2026-05-06 12:23 | 40.60986 | -5.72586 | 36992 ft | 426 kts | 223° |
| 2026-05-06 12:24 | 40.56444 | -5.77610 | 36984 ft | 426 kts | 222° |
| 2026-05-06 12:24 | 40.51927 | -5.82587 | 36984 ft | 427 kts | 222° |
| 2026-05-06 12:25 | 40.47382 | -5.87611 | 36982 ft | 427 kts | 222° |
| 2026-05-06 12:25 | 40.42828 | -5.92622 | 36985 ft | 427 kts | 222° |
| 2026-05-06 12:26 | 40.38268 | -5.97623 | 36983 ft | 427 kts | 222° |
| 2026-05-06 12:26 | 40.33703 | -6.02615 | 36982 ft | 427 kts | 222° |
| 2026-05-06 12:27 | 40.29139 | -6.07610 | 36987 ft | 427 kts | 222° |
| 2026-05-06 12:27 | 40.24587 | -6.12589 | 36994 ft | 427 kts | 222° |
| 2026-05-06 12:28 | 40.20029 | -6.17571 | 36972 ft | 427 kts | 222° |
| 2026-05-06 12:28 | 40.15453 | -6.22545 | 36972 ft | 427 kts | 222° |
| 2026-05-06 12:29 | 40.10895 | -6.27483 | 36972 ft | 427 kts | 222° |
| 2026-05-06 12:29 | 40.06324 | -6.32442 | 36958 ft | 427 kts | 222° |
| 2026-05-06 12:30 | 40.01751 | -6.37392 | 36975 ft | 427 kts | 222° |
| 2026-05-06 12:30 | 39.97173 | -6.42334 | 36974 ft | 427 kts | 222° |
| 2026-05-06 12:31 | 39.92596 | -6.47262 | 36971 ft | 427 kts | 222° |
| 2026-05-06 12:31 | 39.88051 | -6.52159 | 36969 ft | 427 kts | 222° |
| 2026-05-06 12:32 | 39.83472 | -6.57085 | 36972 ft | 427 kts | 222° |
| 2026-05-06 12:32 | 39.78890 | -6.61995 | 36975 ft | 427 kts | 222° |
| 2026-05-06 12:33 | 39.74312 | -6.66899 | 36970 ft | 426 kts | 222° |
| 2026-05-06 12:33 | 39.69731 | -6.71794 | 36968 ft | 426 kts | 221° |
| 2026-05-06 12:34 | 39.65147 | -6.76676 | 36980 ft | 426 kts | 221° |
| 2026-05-06 12:34 | 39.60569 | -6.81549 | 36964 ft | 426 kts | 222° |
| 2026-05-06 12:35 | 39.56020 | -6.86394 | 36962 ft | 426 kts | 221° |
| 2026-05-06 12:35 | 39.51438 | -6.91263 | 36971 ft | 426 kts | 221° |
| 2026-05-06 12:36 | 39.46843 | -6.96118 | 36977 ft | 426 kts | 221° |
| 2026-05-06 12:36 | 39.42249 | -7.00963 | 36981 ft | 426 kts | 221° |
| 2026-05-06 12:37 | 39.37652 | -7.05810 | 36976 ft | 426 kts | 221° |
| 2026-05-06 12:37 | 39.33091 | -7.10618 | 36967 ft | 426 kts | 221° |
| 2026-05-06 12:38 | 39.28501 | -7.15451 | 36982 ft | 425 kts | 221° |
| 2026-05-06 12:38 | 39.23896 | -7.20244 | 36979 ft | 426 kts | 218° |
| 2026-05-06 12:39 | 39.18522 | -7.23553 | 36976 ft | 434 kts | 198° |
| 2026-05-06 12:39 | 39.12674 | -7.25571 | 36970 ft | 435 kts | 199° |
| 2026-05-06 12:40 | 39.06828 | -7.27628 | 36958 ft | 436 kts | 199° |
| 2026-05-06 12:40 | 39.01011 | -7.29670 | 36968 ft | 436 kts | 199° |
| 2026-05-06 12:41 | 38.95156 | -7.31720 | 36974 ft | 436 kts | 199° |
| 2026-05-06 12:41 | 38.89306 | -7.33759 | 36977 ft | 436 kts | 199° |
| 2026-05-06 12:42 | 38.83455 | -7.35802 | 36971 ft | 436 kts | 199° |
| 2026-05-06 12:42 | 38.77604 | -7.37835 | 36981 ft | 435 kts | 199° |
| 2026-05-06 12:43 | 38.71756 | -7.39860 | 36990 ft | 435 kts | 199° |
| 2026-05-06 12:43 | 38.65939 | -7.41869 | 36984 ft | 435 kts | 199° |
| 2026-05-06 12:44 | 38.60078 | -7.43891 | 36978 ft | 435 kts | 199° |
| 2026-05-06 12:44 | 38.54226 | -7.45910 | 36988 ft | 435 kts | 199° |
| 2026-05-06 12:45 | 38.48385 | -7.47932 | 36982 ft | 435 kts | 199° |
| 2026-05-06 12:46 | 38.39652 | -7.50926 | 36956 ft | 434 kts | 199° |
| 2026-05-06 12:46 | 38.33821 | -7.52934 | 36965 ft | 433 kts | 199° |
| 2026-05-06 12:47 | 38.28011 | -7.54921 | 36968 ft | 431 kts | 199° |
| 2026-05-06 12:47 | 38.22245 | -7.56886 | 36969 ft | 431 kts | 199° |
| 2026-05-06 12:48 | 38.16447 | -7.58866 | 36974 ft | 432 kts | 199° |
| 2026-05-06 12:48 | 38.10700 | -7.61038 | 36978 ft | 429 kts | 207° |
| 2026-05-06 12:49 | 38.05754 | -7.65112 | 36989 ft | 422 kts | 225° |
| 2026-05-06 12:49 | 38.01453 | -7.70196 | 36989 ft | 423 kts | 225° |
| 2026-05-06 12:50 | 37.97136 | -7.75268 | 36992 ft | 423 kts | 225° |
| 2026-05-06 12:50 | 37.92838 | -7.80309 | 36941 ft | 423 kts | 225° |
| 2026-05-06 12:51 | 37.88501 | -7.85393 | 36970 ft | 422 kts | 225° |
| 2026-05-06 12:51 | 37.84211 | -7.90416 | 36511 ft | 424 kts | 225° |
| 2026-05-06 12:51 | 37.82044 | -7.92953 | 35894 ft | 423 kts | 225° |
| 2026-05-06 12:52 | 37.80002 | -7.95615 | 35277 ft | 421 kts | 230° |
| 2026-05-06 12:52 | 37.78056 | -7.98386 | 34676 ft | 422 kts | 230° |
| 2026-05-06 12:52 | 37.76105 | -8.01161 | 34086 ft | 423 kts | 230° |
| 2026-05-06 12:52 | 37.74148 | -8.03939 | 33424 ft | 424 kts | 230° |
| 2026-05-06 12:53 | 37.72184 | -8.06723 | 32747 ft | 425 kts | 230° |
| 2026-05-06 12:53 | 37.70212 | -8.09513 | 32085 ft | 426 kts | 230° |
| 2026-05-06 12:53 | 37.68236 | -8.12313 | 31445 ft | 428 kts | 230° |
| 2026-05-06 12:53 | 37.66282 | -8.15085 | 30815 ft | 429 kts | 230° |
| 2026-05-06 12:54 | 37.64296 | -8.17894 | 30199 ft | 429 kts | 229° |
| 2026-05-06 12:54 | 37.62302 | -8.20705 | 29516 ft | 430 kts | 229° |
| 2026-05-06 12:54 | 37.60300 | -8.23523 | 28810 ft | 432 kts | 229° |
| 2026-05-06 12:54 | 37.58287 | -8.26360 | 28124 ft | 434 kts | 229° |
| 2026-05-06 12:55 | 37.56276 | -8.29197 | 27458 ft | 436 kts | 229° |
| 2026-05-06 12:55 | 37.54249 | -8.32051 | 26806 ft | 438 kts | 229° |
| 2026-05-06 12:55 | 37.52203 | -8.34857 | 26197 ft | 429 kts | 225° |
| 2026-05-06 12:55 | 37.49829 | -8.37080 | 25697 ft | 422 kts | 211° |
| 2026-05-06 12:56 | 37.47168 | -8.38448 | 25212 ft | 418 kts | 197° |
| 2026-05-06 12:56 | 37.44301 | -8.38986 | 24729 ft | 416 kts | 188° |
| 2026-05-06 12:56 | 37.41431 | -8.39291 | 24243 ft | 413 kts | 188° |
| 2026-05-06 12:56 | 37.38577 | -8.39589 | 23770 ft | 410 kts | 188° |
| 2026-05-06 12:57 | 37.35744 | -8.39882 | 23273 ft | 407 kts | 188° |
| 2026-05-06 12:57 | 37.32931 | -8.40176 | 22718 ft | 404 kts | 188° |
| 2026-05-06 12:57 | 37.30139 | -8.40473 | 22181 ft | 401 kts | 188° |
| 2026-05-06 12:57 | 37.27364 | -8.40773 | 21654 ft | 399 kts | 188° |
| 2026-05-06 12:58 | 37.24606 | -8.41071 | 21136 ft | 396 kts | 188° |
| 2026-05-06 12:58 | 37.21865 | -8.41362 | 20626 ft | 394 kts | 187° |
| 2026-05-06 12:58 | 37.19144 | -8.41650 | 20128 ft | 392 kts | 187° |
| 2026-05-06 12:58 | 37.16429 | -8.41938 | 19628 ft | 389 kts | 187° |
| 2026-05-06 12:59 | 37.13737 | -8.42224 | 19140 ft | 387 kts | 187° |
| 2026-05-06 12:59 | 37.11061 | -8.42509 | 18666 ft | 385 kts | 187° |
| 2026-05-06 12:59 | 37.08398 | -8.42784 | 18185 ft | 383 kts | 185° |
| 2026-05-06 12:59 | 37.05737 | -8.42569 | 17646 ft | 385 kts | 171° |
| 2026-05-06 13:00 | 37.03232 | -8.41528 | 17128 ft | 386 kts | 156° |
| 2026-05-06 13:00 | 37.00870 | -8.39933 | 16605 ft | 385 kts | 153° |
| 2026-05-06 13:00 | 36.98526 | -8.38321 | 16096 ft | 382 kts | 153° |
| 2026-05-06 13:00 | 36.96208 | -8.36731 | 15590 ft | 379 kts | 153° |
| 2026-05-06 13:01 | 36.93898 | -8.35152 | 15113 ft | 375 kts | 154° |
| 2026-05-06 13:01 | 36.91630 | -8.33603 | 14738 ft | 369 kts | 154° |
| 2026-05-06 13:01 | 36.89397 | -8.32078 | 14377 ft | 363 kts | 153° |
| 2026-05-06 13:01 | 36.87329 | -8.30312 | 14019 ft | 360 kts | 139° |
| 2026-05-06 13:02 | 36.85755 | -8.27900 | 13650 ft | 359 kts | 122° |
| 2026-05-06 13:02 | 36.84810 | -8.25043 | 13256 ft | 356 kts | 104° |
| 2026-05-06 13:02 | 36.84423 | -8.22010 | 12862 ft | 352 kts | 98° |
| 2026-05-06 13:02 | 36.84098 | -8.18999 | 12470 ft | 349 kts | 98° |
| 2026-05-06 13:03 | 36.83776 | -8.16006 | 12084 ft | 348 kts | 98° |
| 2026-05-06 13:03 | 36.83459 | -8.13030 | 11704 ft | 343 kts | 96° |
| 2026-05-06 13:03 | 36.83484 | -8.10075 | 11329 ft | 339 kts | 84° |
| 2026-05-06 13:03 | 36.83725 | -8.07174 | 10959 ft | 335 kts | 85° |
| 2026-05-06 13:04 | 36.83959 | -8.04297 | 10592 ft | 330 kts | 85° |
| 2026-05-06 13:04 | 36.84187 | -8.01464 | 10228 ft | 324 kts | 85° |
| 2026-05-06 13:04 | 36.84404 | -7.98725 | 9867 ft | 311 kts | 85° |
| 2026-05-06 13:04 | 36.84611 | -7.96090 | 9480 ft | 300 kts | 84° |
| 2026-05-06 13:05 | 36.84743 | -7.94383 | 9213 ft | 296 kts | 84° |
| 2026-05-06 13:05 | 36.85008 | -7.91000 | 8700 ft | 295 kts | 84° |
| 2026-05-06 13:05 | 36.85208 | -7.88452 | 8338 ft | 292 kts | 84° |
| 2026-05-06 13:05 | 36.85405 | -7.85939 | 8014 ft | 289 kts | 84° |
| 2026-05-06 13:06 | 36.85600 | -7.83450 | 7683 ft | 287 kts | 84° |
| 2026-05-06 13:06 | 36.85727 | -7.81813 | 7468 ft | 287 kts | 84° |
| 2026-05-06 13:06 | 36.85918 | -7.79343 | 7147 ft | 283 kts | 83° |
| 2026-05-06 13:06 | 36.86104 | -7.76917 | 6828 ft | 278 kts | 83° |
| 2026-05-06 13:07 | 36.86284 | -7.74560 | 6508 ft | 265 kts | 83° |
| 2026-05-06 13:07 | 36.86520 | -7.72343 | 6180 ft | 251 kts | 70° |
| 2026-05-06 13:07 | 36.87274 | -7.70432 | 5855 ft | 243 kts | 48° |
| 2026-05-06 13:07 | 36.88508 | -7.69055 | 5516 ft | 235 kts | 27° |
| 2026-05-06 13:08 | 36.90011 | -7.68351 | 5181 ft | 228 kts | 7° |
| 2026-05-06 13:08 | 36.91584 | -7.68169 | 4870 ft | 226 kts | 3° |
| 2026-05-06 13:08 | 36.93121 | -7.68006 | 4528 ft | 222 kts | 4° |
| 2026-05-06 13:08 | 36.94614 | -7.67924 | 4298 ft | 205 kts | 352° |
| 2026-05-06 13:09 | 36.95919 | -7.68411 | 4305 ft | 191 kts | 333° |
| 2026-05-06 13:09 | 36.96945 | -7.69375 | 4172 ft | 181 kts | 314° |
| 2026-05-06 13:09 | 36.97622 | -7.70661 | 3980 ft | 176 kts | 296° |
| 2026-05-06 13:09 | 36.97937 | -7.72136 | 3771 ft | 176 kts | 282° |
| 2026-05-06 13:10 | 36.98154 | -7.73644 | 3544 ft | 175 kts | 283° |
| 2026-05-06 13:10 | 36.98371 | -7.75142 | 3313 ft | 175 kts | 282° |
| 2026-05-06 13:10 | 36.98587 | -7.76641 | 3078 ft | 174 kts | 282° |
| 2026-05-06 13:10 | 36.98801 | -7.78133 | 2847 ft | 173 kts | 283° |
| 2026-05-06 13:11 | 36.99013 | -7.79606 | 2620 ft | 171 kts | 284° |
| 2026-05-06 13:11 | 36.99220 | -7.81044 | 2394 ft | 170 kts | 282° |
| 2026-05-06 13:11 | 36.99429 | -7.82498 | 2179 ft | 171 kts | 282° |
| 2026-05-06 13:11 | 36.99640 | -7.83968 | 1945 ft | 171 kts | 283° |
| 2026-05-06 13:12 | 36.99843 | -7.85391 | 1717 ft | 160 kts | 283° |
| 2026-05-06 13:12 | 37.00030 | -7.86703 | 1507 ft | 148 kts | 283° |
| 2026-05-06 13:12 | 37.00208 | -7.87940 | 1317 ft | 142 kts | 281° |
| 2026-05-06 13:12 | 37.00380 | -7.89144 | 1120 ft | 139 kts | 279° |
| 2026-05-06 13:13 | 37.00551 | -7.90335 | 938 ft | 140 kts | 280° |
| 2026-05-06 13:13 | 37.00723 | -7.91544 | 772 ft | 143 kts | 279° |
| 2026-05-06 13:13 | 37.00903 | -7.92793 | 564 ft | 149 kts | 278° |
| 2026-05-06 13:13 | 37.01089 | -7.94055 | 351 ft | 145 kts | 275° |
| 2026-05-06 13:14 | 37.01256 | -7.95244 | 162 ft | 137 kts | 277° |
| 2026-05-06 13:14 | 37.01415 | -7.96381 | 26 ft | 124 kts | 277° |
| 2026-05-06 13:14 | 37.01531 | -7.97200 | 20 ft | 72 kts | 280° |
| 2026-05-06 13:14 | 37.01595 | -7.97637 | 19 ft | 33 kts | 280° |
| 2026-05-06 13:15 | 37.01623 | -7.97813 | 19 ft | 15 kts | 289° |
| 2026-05-06 13:15 | 37.01696 | -7.97839 | 20 ft | 12 kts | 28° |
| 2026-05-06 13:15 | 37.01738 | -7.97775 | 20 ft | 0 kts | 63° |
| 2026-05-06 13:16 | 37.01740 | -7.97769 | 20 ft | 1 kts | 64° |
| 2026-05-06 13:17 | 37.01747 | -7.97751 | 20 ft | 5 kts | 66° |
| 2026-05-06 13:17 | 37.01762 | -7.97696 | 21 ft | 7 kts | 72° |
| 2026-05-06 13:17 | 37.01769 | -7.97629 | 20 ft | 11 kts | 90° |
| 2026-05-06 13:17 | 37.01761 | -7.97524 | 20 ft | 12 kts | 99° |
| 2026-05-06 13:18 | 37.01747 | -7.97420 | 20 ft | 12 kts | 100° |
| 2026-05-06 13:18 | 37.01729 | -7.97302 | 20 ft | 14 kts | 100° |
| 2026-05-06 13:18 | 37.01713 | -7.97185 | 23 ft | 13 kts | 101° |
| 2026-05-06 13:18 | 37.01697 | -7.97078 | 21 ft | 12 kts | 101° |
| 2026-05-06 13:19 | 37.01681 | -7.96968 | 21 ft | 13 kts | 95° |
| 2026-05-06 13:19 | 37.01730 | -7.96898 | 23 ft | 11 kts | 13° |
| 2026-05-06 13:19 | 37.01802 | -7.96878 | 20 ft | 10 kts | 21° |
| 2026-05-06 13:19 | 37.01866 | -7.96848 | 20 ft | 9 kts | 10° |
| 2026-05-06 13:20 | 37.01903 | -7.96840 | 20 ft | 2 kts | 10° |
| 2026-05-06 13:20 | 37.01912 | -7.96838 | 20 ft | 1 kts | 10° |
| 2026-05-06 13:20 | 37.01915 | -7.96837 | 20 ft | 0 kts | 10° |